Time;durP1;ratioP1;P1;durP2;ratioP2;P2;SDS_P1;SDS_P2;PMS_P1;PMS_P2;Temp;Humidity;BMP_temperature;BMP_pressure;BME280_temperature;BME280_humidity;BME280_pressure;Samples;Min_cycle;Max_cycle;Signal;HPM_P1;HPM_P2
2022/01/16 00:01:58;;;;;;;28.83;11.43;;;;;;;0.83;94.68;101755.13;6069600;28;20495;-74
2022/01/16 00:04:52;;;;;;;28.42;11.60;;;;;;;0.69;94.81;101760.84;6071557;28;20484;-74
2022/01/16 00:07:48;;;;;;;23.93;9.67;;;;;;;0.66;94.95;101765.31;6074543;28;20063;-74
2022/01/16 00:10:44;;;;;;;22.80;9.32;;;;;;;0.62;95.30;101768.97;6073567;28;20435;-74
2022/01/16 00:13:39;;;;;;;27.75;10.27;;;;;;;0.59;94.92;101759.50;6074845;28;20076;-73
2022/01/16 00:16:35;;;;;;;28.20;11.07;;;;;;;0.53;95.18;101738.84;6066023;28;20029;-73
2022/01/16 00:19:30;;;;;;;27.63;10.93;;;;;;;0.48;94.94;101725.13;6052659;28;20030;-74
2022/01/16 00:22:29;;;;;;;28.60;11.80;;;;;;;0.46;95.32;101743.44;6071988;28;20044;-73
2022/01/16 00:25:25;;;;;;;31.52;11.73;;;;;;;0.45;95.74;101738.28;6072983;28;20120;-74
2022/01/16 00:28:21;;;;;;;27.13;11.27;;;;;;;0.41;95.18;101757.56;6074881;28;20030;-74
2022/01/16 00:31:18;;;;;;;25.13;10.38;;;;;;;0.33;95.55;101746.56;6073032;28;20030;-74
2022/01/16 00:34:13;;;;;;;24.52;10.45;;;;;;;0.32;95.79;101757.91;6073434;28;20113;-73
2022/01/16 00:37:08;;;;;;;30.03;12.03;;;;;;;0.34;95.89;101753.47;6074031;28;20102;-74
2022/01/16 00:40:05;;;;;;;27.27;11.47;;;;;;;0.29;95.63;101747.59;6072220;28;20029;-74
2022/01/16 00:43:01;;;;;;;29.50;12.70;;;;;;;0.31;95.38;101740.53;6075305;28;20082;-74
2022/01/16 00:45:57;;;;;;;25.67;11.10;;;;;;;0.20;95.70;101711.41;6078062;28;20064;-73
2022/01/16 00:48:52;;;;;;;32.07;11.50;;;;;;;0.18;95.84;101680.19;6069141;28;20038;-74
2022/01/16 00:51:47;;;;;;;31.93;13.17;;;;;;;0.23;96.01;101700.84;6065918;28;20045;-73
2022/01/16 00:54:42;;;;;;;31.63;11.33;;;;;;;0.24;96.12;101690.38;6066752;28;20026;-73
2022/01/16 00:57:38;;;;;;;30.77;12.53;;;;;;;0.18;96.01;101674.97;6073662;28;20037;-73
2022/01/16 01:00:33;;;;;;;30.63;13.17;;;;;;;0.24;96.56;101674.75;6072409;28;20040;-73
2022/01/16 01:03:30;;;;;;;27.10;10.50;;;;;;;0.20;96.10;101690.53;6072528;28;20393;-74
2022/01/16 01:06:25;;;;;;;40.72;14.98;;;;;;;0.09;96.67;101684.84;6071868;28;20067;-74
2022/01/16 01:09:20;;;;;;;32.20;12.43;;;;;;;0.20;96.71;101693.16;6067878;28;20030;-74
2022/01/16 01:12:27;;;;;;;36.07;15.07;;;;;;;0.25;96.02;101652.94;6072886;28;20029;-74
2022/01/16 01:15:29;;;;;;;34.53;13.55;;;;;;;0.23;96.34;101661.75;6072267;28;20045;-74
2022/01/16 01:18:25;;;;;;;31.85;12.90;;;;;;;0.28;96.25;101647.63;6067473;28;20049;-74
2022/01/16 01:21:28;;;;;;;27.83;10.90;;;;;;;0.21;96.59;101633.13;6067694;28;20037;-74
2022/01/16 01:24:24;;;;;;;27.85;11.43;;;;;;;0.23;96.67;101635.66;6072705;28;20056;-73
2022/01/16 01:27:26;;;;;;;25.73;11.30;;;;;;;0.27;96.76;101642.47;6073346;28;20075;-74
2022/01/16 01:30:24;;;;;;;36.92;13.13;;;;;;;0.33;96.85;101639.63;6072135;28;20041;-73
2022/01/16 01:33:20;;;;;;;34.50;12.75;;;;;;;0.32;96.77;101645.75;6073093;28;20554;-73
2022/01/16 01:36:16;;;;;;;28.15;11.57;;;;;;;0.34;96.73;101664.78;6070845;28;20404;-73
2022/01/16 01:39:11;;;;;;;34.42;13.38;;;;;;;0.33;96.83;101647.44;6072444;28;20030;-73
2022/01/16 01:42:10;;;;;;;30.20;11.57;;;;;;;0.35;97.11;101624.78;6072507;28;20115;-74
2022/01/16 01:51:42;;;;;;;27.63;10.90;;;;;;;0.46;96.86;101549.56;6070845;28;20037;-73
2022/01/16 01:54:37;;;;;;;36.05;12.13;;;;;;;0.50;96.88;101540.69;6071943;28;20516;-73
2022/01/16 01:57:33;;;;;;;31.17;11.17;;;;;;;0.47;96.95;101556.47;6071537;28;20029;-74
2022/01/16 02:00:28;;;;;;;30.67;12.37;;;;;;;0.50;96.49;101582.44;6071680;28;20037;-74
2022/01/16 02:03:35;;;;;;;30.90;12.07;;;;;;;0.55;96.87;101563.06;6071996;28;20037;-73
2022/01/16 02:06:32;;;;;;;31.13;11.18;;;;;;;0.54;96.71;101570.97;6071124;28;20424;-74
2022/01/16 02:09:27;;;;;;;29.33;9.68;;;;;;;0.53;96.79;101590.13;6071561;28;20034;-73
2022/01/16 02:12:23;;;;;;;35.63;12.60;;;;;;;0.54;96.91;101589.25;6061650;28;20388;-73
2022/01/16 02:15:38;;;;;;;29.00;11.32;;;;;;;0.52;96.56;101581.44;6077185;28;20100;-73
2022/01/16 02:28:48;;;;;;;41.88;14.27;;;;;;;0.67;96.77;101556.50;6077606;28;20061;-73
2022/01/16 02:31:44;;;;;;;40.33;13.57;;;;;;;0.70;97.17;101559.00;6065530;28;20045;-73
2022/01/16 02:34:42;;;;;;;39.20;13.57;;;;;;;0.71;96.67;101560.69;6074473;28;20029;-73
2022/01/16 02:37:38;;;;;;;40.20;13.77;;;;;;;0.77;96.86;101564.81;6075858;28;20044;-74
2022/01/16 02:40:35;;;;;;;35.35;12.85;;;;;;;0.76;97.10;101556.13;6075459;28;20033;-74
2022/01/16 02:43:34;;;;;;;34.40;11.95;;;;;;;0.72;96.63;101557.16;6074508;28;20530;-73
2022/01/16 02:49:30;;;;;;;31.60;12.10;;;;;;;0.73;96.67;101555.41;6076232;28;20110;-73
2022/01/16 02:52:25;;;;;;;35.17;12.25;;;;;;;0.74;96.55;101560.56;6072723;28;20123;-74
2022/01/16 02:55:22;;;;;;;33.25;10.85;;;;;;;0.77;97.05;101546.53;6073111;28;20362;-73
2022/01/16 02:58:17;;;;;;;38.13;12.35;;;;;;;0.68;96.78;101532.09;6076375;28;20120;-74
2022/01/16 03:01:13;;;;;;;34.67;12.27;;;;;;;0.59;96.79;101543.78;6074664;28;20505;-73
2022/01/16 03:04:09;;;;;;;26.88;10.40;;;;;;;0.62;96.54;101545.41;6071472;28;20029;-73
2022/01/16 03:07:04;;;;;;;27.05;8.85;;;;;;;0.58;96.60;101530.78;6075669;28;20472;-73
2022/01/16 03:13:31;;;;;;;27.77;10.07;;;;;;;0.60;96.66;101516.75;6073191;28;20295;-73
2022/01/16 03:16:26;;;;;;;34.75;10.77;;;;;;;0.65;96.68;101514.00;6075098;28;20033;-73
2022/01/16 03:22:35;;;;;;;33.22;11.40;;;;;;;0.62;96.67;101502.81;6066138;28;20041;-73
2022/01/16 03:25:31;;;;;;;36.00;10.63;;;;;;;0.59;97.03;101495.97;6074921;28;20386;-73
2022/01/16 03:28:27;;;;;;;23.33;8.52;;;;;;;0.54;97.29;101495.31;6075536;28;20377;-74
2022/01/16 03:31:22;;;;;;;25.13;9.38;;;;;;;0.51;96.61;101504.13;6073624;28;20033;-73
2022/01/16 03:34:17;;;;;;;20.97;8.30;;;;;;;0.49;96.85;101507.69;6067533;28;20065;-74
2022/01/16 03:37:13;;;;;;;23.15;9.10;;;;;;;0.49;97.00;101503.31;6073592;28;20144;-74
2022/01/16 03:40:11;;;;;;;20.92;8.55;;;;;;;0.38;96.86;101509.91;6073512;28;20056;-74
2022/01/16 03:43:14;;;;;;;19.77;8.40;;;;;;;0.36;96.98;101501.25;6073507;28;20435;-73
2022/01/16 03:46:09;;;;;;;17.35;7.13;;;;;;;0.32;96.83;101499.69;6074706;28;20104;-73
2022/01/16 03:49:13;;;;;;;25.00;10.40;;;;;;;0.19;96.90;101494.13;6074819;28;20041;-74
2022/01/16 03:52:09;;;;;;;15.93;6.72;;;;;;;0.08;96.83;101505.91;6069305;28;20029;-74
2022/01/16 03:55:07;;;;;;;21.43;7.17;;;;;;;-0.06;97.17;101503.81;6069492;28;20171;-73
2022/01/16 03:58:03;;;;;;;23.98;8.40;;;;;;;-0.04;96.85;101502.00;6074696;28;20485;-73
2022/01/16 04:00:58;;;;;;;22.23;8.45;;;;;;;-0.04;97.38;101497.66;6072886;28;20475;-73
2022/01/16 04:03:54;;;;;;;24.53;7.70;;;;;;;-0.06;97.38;101493.41;6061134;28;20040;-74
2022/01/16 04:06:50;;;;;;;22.25;8.93;;;;;;;-0.05;97.81;101495.06;6074923;28;20072;-73
2022/01/16 04:09:45;;;;;;;21.83;7.47;;;;;;;-0.06;97.46;101503.81;6062358;28;20448;-73
2022/01/16 04:12:40;;;;;;;19.80;8.13;;;;;;;-0.06;96.95;101519.47;6073423;28;20040;-74
2022/01/16 04:15:36;;;;;;;23.13;8.43;;;;;;;-0.10;97.25;101503.09;6062632;28;20116;-72
2022/01/16 04:18:31;;;;;;;22.90;8.83;;;;;;;-0.14;97.36;101517.16;6072009;28;20508;-73
2022/01/16 04:21:27;;;;;;;22.63;8.13;;;;;;;-0.19;97.54;101519.06;6056749;28;20103;-74
2022/01/16 04:24:22;;;;;;;23.27;8.77;;;;;;;-0.10;97.69;101515.25;6072487;28;20040;-73
2022/01/16 04:27:18;;;;;;;22.33;8.77;;;;;;;-0.01;97.44;101512.31;6073230;28;20033;-72
2022/01/16 04:30:13;;;;;;;22.53;8.27;;;;;;;0.10;97.32;101514.50;6065837;28;20079;-73
2022/01/16 04:33:09;;;;;;;22.05;8.20;;;;;;;0.06;97.66;101498.13;6074419;28;20473;-74
2022/01/16 04:36:05;;;;;;;22.10;8.57;;;;;;;0.10;97.67;101509.28;6072225;28;20029;-73
2022/01/16 04:39:00;;;;;;;24.25;8.43;;;;;;;0.14;97.82;101518.66;6070950;28;20032;-73
2022/01/16 04:45:10;;;;;;;24.02;8.25;;;;;;;0.27;98.03;101544.19;6071037;28;20469;-74
2022/01/16 04:48:05;;;;;;;22.42;8.40;;;;;;;0.42;97.94;101542.75;6074102;28;20025;-73
2022/01/16 04:51:01;;;;;;;28.57;9.23;;;;;;;0.47;98.15;101551.25;6070363;28;20040;-73
2022/01/16 04:53:56;;;;;;;22.93;7.30;;;;;;;0.52;97.78;101544.94;6068656;28;20032;-73
2022/01/16 04:56:52;;;;;;;22.02;7.57;;;;;;;0.54;98.15;101532.66;6072207;28;20068;-73
2022/01/16 04:59:48;;;;;;;25.02;8.25;;;;;;;0.54;98.00;101540.50;6069285;28;20400;-73
2022/01/16 05:02:43;;;;;;;19.40;7.77;;;;;;;0.57;98.16;101547.38;6060780;28;20060;-74
2022/01/16 05:05:38;;;;;;;21.17;7.27;;;;;;;0.53;97.77;101546.63;6071713;28;20273;-73
2022/01/16 05:08:34;;;;;;;24.40;9.47;;;;;;;0.54;98.18;101539.66;6071091;28;20034;-73
2022/01/16 05:11:29;;;;;;;21.27;7.20;;;;;;;0.57;97.88;101534.31;6067311;28;20491;-73
2022/01/16 05:17:39;;;;;;;19.23;7.57;;;;;;;0.62;97.83;101540.19;6063173;28;20047;-73
2022/01/16 05:20:34;;;;;;;20.27;6.73;;;;;;;0.69;98.09;101531.19;6071752;28;20464;-72
2022/01/16 05:23:29;;;;;;;21.20;8.53;;;;;;;0.76;98.06;101531.81;6072645;28;20021;-73
2022/01/16 05:26:27;;;;;;;17.57;6.27;;;;;;;0.80;97.85;101530.75;6072759;28;20030;-74
2022/01/16 05:29:23;;;;;;;21.10;6.97;;;;;;;0.82;97.80;101527.16;6060607;28;20673;-73
2022/01/16 05:32:18;;;;;;;17.53;6.87;;;;;;;0.84;97.93;101521.91;6071878;28;20033;-74
2022/01/16 05:35:13;;;;;;;21.73;6.80;;;;;;;0.87;97.27;101524.38;6072314;28;20083;-74
2022/01/16 05:38:09;;;;;;;17.50;5.73;;;;;;;0.85;97.49;101511.38;6073363;28;20061;-73
2022/01/16 05:41:05;;;;;;;15.88;6.18;;;;;;;0.87;97.77;101488.66;6069259;28;20041;-73
2022/01/16 05:44:00;;;;;;;17.60;6.37;;;;;;;0.87;97.28;101480.81;6072876;28;20057;-73
2022/01/16 05:46:55;;;;;;;18.02;7.13;;;;;;;0.88;97.18;101479.91;6073149;28;20041;-73
2022/01/16 05:49:51;;;;;;;18.20;6.38;;;;;;;0.85;96.89;101485.28;6076894;28;20057;-74
2022/01/16 05:52:47;;;;;;;13.97;5.83;;;;;;;0.81;97.02;101486.34;6074434;28;20467;-72
2022/01/16 05:55:42;;;;;;;15.52;6.00;;;;;;;0.81;97.03;101482.88;6077042;28;20033;-73
2022/01/16 05:58:39;;;;;;;16.10;6.23;;;;;;;0.78;97.22;101476.03;6073388;28;20079;-73
2022/01/16 06:01:36;;;;;;;18.48;6.10;;;;;;;0.77;97.03;101486.50;6077205;28;20041;-74
2022/01/16 06:04:31;;;;;;;16.63;5.90;;;;;;;0.75;97.08;101480.50;6064526;28;20042;-74
2022/01/16 06:07:27;;;;;;;17.90;6.00;;;;;;;0.76;97.01;101475.22;6070948;28;20060;-74
2022/01/16 06:10:22;;;;;;;18.17;5.70;;;;;;;0.74;96.34;101497.06;6075513;28;20039;-73
2022/01/16 06:13:17;;;;;;;13.87;5.23;;;;;;;0.78;96.69;101502.13;6074888;28;20061;-74
2022/01/16 06:16:13;;;;;;;13.93;5.80;;;;;;;0.81;96.50;101493.31;6066351;28;20057;-73
2022/01/16 06:19:08;;;;;;;11.70;4.77;;;;;;;0.83;96.78;101492.31;6076543;28;20766;-74
2022/01/16 06:22:03;;;;;;;13.63;5.37;;;;;;;0.87;96.47;101504.31;6076312;28;20091;-74
2022/01/16 06:24:59;;;;;;;11.65;4.80;;;;;;;0.92;96.38;101502.38;6076001;28;20116;-74
2022/01/16 06:27:54;;;;;;;11.90;4.87;;;;;;;0.95;96.04;101502.22;6075852;28;20033;-73
2022/01/16 06:30:50;;;;;;;12.23;5.63;;;;;;;1.02;96.25;101511.50;6074406;28;20040;-73
2022/01/16 06:33:45;;;;;;;12.10;5.05;;;;;;;1.02;95.74;101508.91;6072561;28;20036;-74
2022/01/16 06:36:41;;;;;;;13.20;4.73;;;;;;;1.07;96.02;101512.16;6076222;28;20033;-74
2022/01/16 06:39:36;;;;;;;12.98;5.28;;;;;;;1.03;95.86;101497.53;6076229;28;20124;-74
2022/01/16 06:42:32;;;;;;;11.00;4.67;;;;;;;1.08;95.50;101508.66;6074865;28;20033;-74
2022/01/16 06:45:28;;;;;;;12.27;5.05;;;;;;;1.09;95.06;101504.25;6072770;28;20041;-74
2022/01/16 06:48:24;;;;;;;13.48;5.07;;;;;;;1.11;95.54;101503.25;6074907;28;20041;-74
2022/01/16 06:51:20;;;;;;;12.82;5.47;;;;;;;1.14;94.96;101508.34;6065477;28;20037;-74
2022/01/16 06:54:15;;;;;;;18.60;6.00;;;;;;;1.17;94.50;101510.84;6053961;28;20546;-74
2022/01/16 06:57:10;;;;;;;14.67;5.73;;;;;;;1.22;94.45;101520.25;6060685;28;20051;-73
2022/01/16 07:00:07;;;;;;;13.87;5.67;;;;;;;1.20;93.91;101526.38;6074714;28;20394;-74
2022/01/16 07:03:02;;;;;;;14.48;6.53;;;;;;;1.25;93.85;101533.19;6061806;28;20366;-74
2022/01/16 07:05:59;;;;;;;16.57;5.87;;;;;;;1.26;93.80;101532.25;6066749;28;20033;-74
2022/01/16 07:08:55;;;;;;;12.77;5.85;;;;;;;1.23;94.18;101527.16;6076165;28;20021;-73
2022/01/16 07:11:50;;;;;;;16.80;5.63;;;;;;;1.26;94.16;101534.84;6062074;28;20095;-74
2022/01/16 07:14:47;;;;;;;12.00;5.53;;;;;;;1.28;93.24;101533.88;6075216;28;20393;-73
2022/01/16 07:17:42;;;;;;;13.65;6.13;;;;;;;1.30;93.35;101539.91;6068682;28;20040;-74
2022/01/16 07:20:37;;;;;;;14.40;6.03;;;;;;;1.30;93.53;101546.88;6074712;28;20037;-74
2022/01/16 07:23:33;;;;;;;14.73;6.43;;;;;;;1.25;93.17;101539.22;6074573;28;20025;-74
2022/01/16 07:26:29;;;;;;;16.20;6.63;;;;;;;1.26;93.74;101540.94;6073860;28;20057;-73
2022/01/16 07:29:24;;;;;;;13.37;5.90;;;;;;;1.26;93.30;101543.53;6067719;28;20353;-74
2022/01/16 07:32:19;;;;;;;14.57;7.10;;;;;;;1.26;93.70;101553.13;6074167;28;20037;-74
2022/01/16 07:35:15;;;;;;;16.67;7.30;;;;;;;1.25;93.20;101554.91;6075389;28;20064;-73
2022/01/16 07:38:10;;;;;;;19.27;7.00;;;;;;;1.20;93.27;101559.47;6054937;28;20030;-74
2022/01/16 07:41:05;;;;;;;17.95;6.80;;;;;;;1.20;93.20;101576.00;6075015;28;20030;-74
2022/01/16 07:44:01;;;;;;;15.27;5.87;;;;;;;1.19;93.54;101566.50;6074032;28;20086;-74
2022/01/16 07:46:56;;;;;;;17.42;7.13;;;;;;;1.31;93.28;101564.22;6074701;28;20263;-74
2022/01/16 07:49:52;;;;;;;16.67;6.87;;;;;;;1.27;93.24;101554.84;6073957;28;20029;-74
2022/01/16 07:52:50;;;;;;;19.70;8.03;;;;;;;1.31;93.80;101574.69;6070846;28;20108;-74
2022/01/16 07:55:45;;;;;;;19.23;6.65;;;;;;;1.31;93.25;101572.06;6063986;28;20053;-74
2022/01/16 07:58:42;;;;;;;20.27;8.03;;;;;;;1.36;93.28;101564.91;6054933;28;20060;-74
2022/01/16 08:01:37;;;;;;;16.95;7.97;;;;;;;1.36;92.97;101559.69;6065969;28;20036;-74
2022/01/16 08:04:32;;;;;;;22.17;8.10;;;;;;;1.36;93.17;101570.13;6066313;28;20045;-74
2022/01/16 08:07:27;;;;;;;22.03;8.90;;;;;;;1.43;93.19;101564.56;6051162;28;20080;-74
2022/01/16 08:10:23;;;;;;;22.47;7.40;;;;;;;1.43;93.10;101571.56;6066445;28;20041;-74
2022/01/16 08:13:18;;;;;;;21.87;7.77;;;;;;;1.48;92.46;101567.81;6073407;28;20029;-74
2022/01/16 08:16:14;;;;;;;19.73;8.17;;;;;;;1.44;92.73;101574.09;6070693;28;20033;-74
2022/01/16 08:19:09;;;;;;;24.58;9.60;;;;;;;1.50;92.73;101562.50;6056826;28;20038;-74
2022/01/16 08:22:05;;;;;;;30.33;10.67;;;;;;;1.54;92.07;101571.94;6073301;28;20114;-74
2022/01/16 08:25:00;;;;;;;33.77;10.63;;;;;;;1.56;92.18;101559.63;6072268;28;20029;-74
2022/01/16 08:27:55;;;;;;;24.73;10.00;;;;;;;1.60;91.84;101558.59;6073538;28;20029;-74
2022/01/16 08:30:51;;;;;;;31.53;10.73;;;;;;;1.59;92.38;101559.50;6073194;28;20068;-74
2022/01/16 08:33:46;;;;;;;27.73;10.95;;;;;;;1.61;92.10;101536.75;6073294;28;20303;-74
2022/01/16 08:36:41;;;;;;;32.07;10.93;;;;;;;1.65;92.06;101525.25;6063371;28;20041;-74
2022/01/16 08:39:37;;;;;;;35.30;10.37;;;;;;;1.68;92.00;101525.13;6068972;28;20025;-74
2022/01/16 08:42:32;;;;;;;34.72;11.40;;;;;;;1.69;92.08;101522.44;6071452;28;20059;-74
2022/01/16 08:45:27;;;;;;;36.23;12.33;;;;;;;1.69;91.50;101532.03;6072955;28;20108;-74
2022/01/16 08:48:23;;;;;;;36.93;12.77;;;;;;;1.75;91.75;101534.38;6073833;28;20048;-74
2022/01/16 08:51:18;;;;;;;39.90;14.53;;;;;;;1.75;91.51;101522.16;6071853;28;20041;-74
2022/01/16 08:54:13;;;;;;;42.23;13.20;;;;;;;1.77;92.08;101520.31;6062750;28;20033;-75
2022/01/16 08:57:09;;;;;;;39.07;13.33;;;;;;;1.75;91.87;101523.91;6072972;28;20659;-75
2022/01/16 09:00:06;;;;;;;41.40;13.27;;;;;;;1.76;92.13;101528.25;6063206;28;20079;-74
2022/01/16 09:03:02;;;;;;;44.50;14.00;;;;;;;1.76;92.38;101528.25;6072993;28;20087;-74
2022/01/16 09:05:57;;;;;;;39.67;14.00;;;;;;;1.76;92.42;101531.72;6071745;28;20155;-74
2022/01/16 09:08:52;;;;;;;36.73;12.67;;;;;;;1.79;92.30;101533.34;6063069;28;20384;-74
2022/01/16 09:11:48;;;;;;;48.30;14.77;;;;;;;1.77;92.95;101537.75;6070130;28;20083;-75
2022/01/16 09:14:43;;;;;;;40.40;12.13;;;;;;;1.78;92.94;101542.94;6069667;28;20025;-74
2022/01/16 09:17:39;;;;;;;50.20;13.80;;;;;;;1.75;91.91;101530.00;6052065;28;20042;-74
2022/01/16 09:20:35;;;;;;;40.60;13.52;;;;;;;1.81;92.70;101539.31;6056976;28;20080;-74
2022/01/16 09:23:30;;;;;;;44.77;15.23;;;;;;;1.81;92.12;101534.09;6071323;28;20041;-74
2022/01/16 09:26:26;;;;;;;48.63;14.73;;;;;;;1.87;92.35;101538.19;6054184;28;20033;-74
2022/01/16 09:29:21;;;;;;;39.35;14.52;;;;;;;1.85;92.06;101533.03;6066913;28;20284;-74
2022/01/16 09:32:17;;;;;;;37.90;13.18;;;;;;;1.89;91.70;101528.50;6080035;28;20476;-74
2022/01/16 09:35:13;;;;;;;43.77;14.87;;;;;;;1.91;91.86;101526.66;6077063;28;20125;-75
2022/01/16 09:38:08;;;;;;;42.95;13.48;;;;;;;1.91;91.09;101527.50;6072030;28;20264;-75
2022/01/16 09:41:04;;;;;;;33.53;13.23;;;;;;;1.98;91.06;101530.72;6072509;28;20365;-73
2022/01/16 09:44:00;;;;;;;45.65;16.58;;;;;;;2.02;91.42;101543.56;6063339;28;20420;-74
2022/01/16 09:46:57;;;;;;;38.83;14.80;;;;;;;2.01;90.85;101538.41;6070104;28;20036;-74
2022/01/16 09:49:53;;;;;;;46.53;15.43;;;;;;;2.02;90.79;101540.94;6071920;28;20374;-74
2022/01/16 09:52:49;;;;;;;40.13;13.73;;;;;;;2.06;91.29;101534.66;6070811;28;20041;-74
2022/01/16 09:55:44;;;;;;;40.33;14.75;;;;;;;2.12;90.97;101544.81;6069971;28;20025;-74
2022/01/16 09:58:41;;;;;;;41.57;13.77;;;;;;;2.11;90.62;101537.91;6072279;28;20507;-74
2022/01/16 10:01:36;;;;;;;34.97;13.00;;;;;;;2.14;90.57;101534.28;6071658;28;20048;-74
2022/01/16 10:04:36;;;;;;;43.00;13.90;;;;;;;2.19;90.51;101546.25;6072924;28;20033;-74
2022/01/16 10:07:40;;;;;;;38.22;14.05;;;;;;;2.17;90.18;101535.00;6073102;28;20389;-74
2022/01/16 10:10:42;;;;;;;32.60;12.98;;;;;;;2.21;90.83;101533.94;6064215;28;20068;-74
2022/01/16 10:13:56;;;;;;;38.35;14.60;;;;;;;2.18;90.58;101547.16;6072880;28;20034;-74
2022/01/16 10:16:51;;;;;;;44.45;15.35;;;;;;;2.20;90.86;101534.00;6057847;28;20033;-74
2022/01/16 10:20:07;;;;;;;38.93;14.87;;;;;;;2.19;90.14;101538.41;6067770;28;20067;-74
2022/01/16 10:23:02;;;;;;;37.80;14.15;;;;;;;2.27;90.41;101546.72;6072729;28;20433;-75
2022/01/16 10:25:57;;;;;;;47.43;15.83;;;;;;;2.25;90.80;101547.72;6072598;28;20049;-74
2022/01/16 10:28:52;;;;;;;41.80;14.43;;;;;;;2.28;90.86;101540.56;6072320;28;20749;-74
2022/01/16 10:31:49;;;;;;;39.97;16.47;;;;;;;2.24;91.00;101536.41;6067030;28;20038;-74
2022/01/16 10:34:47;;;;;;;47.33;15.50;;;;;;;2.27;90.64;101540.63;6073303;28;20033;-74
2022/01/16 10:37:44;;;;;;;42.35;14.85;;;;;;;2.32;90.91;101547.34;6077102;28;20033;-74
2022/01/16 10:40:39;;;;;;;46.70;16.30;;;;;;;2.28;91.42;101553.63;6076294;28;20073;-74
2022/01/16 10:43:43;;;;;;;57.05;19.15;;;;;;;2.23;91.71;101545.16;6076346;28;20045;-74
2022/01/16 10:46:38;;;;;;;51.28;17.00;;;;;;;2.18;92.22;101541.91;6070733;28;20045;-74
2022/01/16 10:49:34;;;;;;;51.80;16.20;;;;;;;2.19;92.52;101548.00;6076079;28;20041;-74
2022/01/16 10:52:29;;;;;;;54.80;18.57;;;;;;;2.20;92.67;101540.06;6068763;28;20040;-75
2022/01/16 10:55:47;;;;;;;46.17;17.67;;;;;;;2.23;93.23;101537.31;6053040;28;20033;-75
2022/01/16 10:58:43;;;;;;;59.85;19.25;;;;;;;2.23;93.94;101547.78;6071195;28;20021;-75
2022/01/16 11:01:38;;;;;;;53.97;17.65;;;;;;;2.20;93.71;101541.88;6075967;28;20527;-74
2022/01/16 11:04:33;;;;;;;53.27;19.57;;;;;;;2.19;94.42;101548.00;6074389;28;20108;-74
2022/01/16 11:07:29;;;;;;;52.73;18.03;;;;;;;2.20;94.48;101540.06;6076369;28;20032;-74
2022/01/16 11:10:27;;;;;;;47.73;15.70;;;;;;;2.26;94.38;101539.78;6075400;28;20042;-75
2022/01/16 11:13:29;;;;;;;61.25;19.38;;;;;;;2.29;94.05;101544.88;6075165;28;20113;-74
2022/01/16 11:16:25;;;;;;;57.63;19.27;;;;;;;2.28;95.14;101547.59;6066225;28;20034;-72
2022/01/16 11:19:23;;;;;;;59.80;18.45;;;;;;;2.35;95.07;101549.81;6064899;28;20037;-72
2022/01/16 11:22:23;;;;;;;56.45;18.45;;;;;;;2.35;95.25;101544.59;6075441;28;20029;-72
2022/01/16 11:25:30;;;;;;;52.17;17.95;;;;;;;2.40;95.11;101529.50;6075120;28;20050;-73
2022/01/16 11:28:26;;;;;;;59.20;18.23;;;;;;;2.44;94.42;101527.59;6074549;28;20037;-74
2022/01/16 11:31:21;;;;;;;53.90;17.27;;;;;;;2.49;95.13;101524.75;6075072;28;20045;-74
2022/01/16 11:34:16;;;;;;;55.67;18.85;;;;;;;2.59;94.84;101533.84;6074497;28;20330;-74
2022/01/16 11:37:12;;;;;;;54.60;17.97;;;;;;;2.54;94.84;101526.22;6075728;28;20519;-74
2022/01/16 11:40:41;;;;;;;53.58;18.83;;;;;;;2.55;94.98;101524.47;6074079;28;20033;-74
2022/01/16 11:43:37;;;;;;;54.25;17.92;;;;;;;2.59;95.28;101526.84;6073964;28;20112;-74
2022/01/16 11:46:41;;;;;;;56.50;18.08;;;;;;;2.58;95.08;101535.63;6069799;28;20113;-74
2022/01/16 11:49:41;;;;;;;54.53;19.30;;;;;;;2.59;94.87;101526.84;6074688;28;20030;-74
2022/01/16 11:52:41;;;;;;;60.13;20.05;;;;;;;2.63;95.21;101530.16;6066163;28;20064;-74
2022/01/16 11:55:37;;;;;;;46.10;16.67;;;;;;;2.68;95.07;101530.78;6058009;28;20030;-74
2022/01/16 11:59:11;;;;;;;54.83;16.73;;;;;;;2.69;94.88;101527.25;6074708;28;20111;-74
2022/01/16 12:02:09;;;;;;;48.67;15.93;;;;;;;2.72;94.32;101521.84;6074478;28;20396;-74
2022/01/16 12:05:05;;;;;;;53.30;18.23;;;;;;;2.73;94.39;101534.00;6074074;28;20511;-74
2022/01/16 12:08:19;;;;;;;48.15;18.90;;;;;;;2.75;94.56;101516.44;6073608;28;20378;-74
2022/01/16 12:11:37;;;;;;;45.90;17.60;;;;;;;2.80;95.00;101523.16;6064495;28;20109;-74
2022/01/16 12:14:56;;;;;;;49.20;18.23;;;;;;;2.82;93.62;101525.72;6073536;28;20052;-74
2022/01/16 12:17:51;;;;;;;43.90;17.33;;;;;;;2.86;93.78;101519.38;6054338;28;20037;-74
2022/01/16 12:20:47;;;;;;;47.17;16.00;;;;;;;2.95;93.91;101532.03;6073125;28;20049;-74
2022/01/16 12:23:47;;;;;;;40.60;16.10;;;;;;;2.92;93.02;101524.31;6074186;28;20040;-74
2022/01/16 12:26:42;;;;;;;46.80;15.25;;;;;;;2.96;92.96;101518.84;6074638;28;20021;-74
2022/01/16 12:30:09;;;;;;;48.50;16.97;;;;;;;2.97;93.17;101517.06;6072799;28;20487;-74
2022/01/16 12:33:38;;;;;;;44.17;15.80;;;;;;;3.05;92.99;101514.91;6074141;28;20025;-75
2022/01/16 12:36:34;;;;;;;46.50;16.08;;;;;;;3.11;92.56;101514.59;6074488;28;20469;-74
2022/01/16 12:39:30;;;;;;;43.78;15.82;;;;;;;3.07;92.98;101513.06;6074090;28;20036;-74
2022/01/16 12:42:25;;;;;;;40.17;15.73;;;;;;;3.08;92.01;101514.75;6073415;28;20534;-74
2022/01/16 12:45:20;;;;;;;43.65;15.73;;;;;;;3.09;93.06;101511.22;6071693;28;20039;-74
2022/01/16 12:48:16;;;;;;;49.17;17.63;;;;;;;3.07;92.47;101504.38;6062576;28;20380;-74
2022/01/16 12:51:13;;;;;;;44.77;16.50;;;;;;;3.15;91.81;101497.81;6073625;28;20047;-74
2022/01/16 12:54:19;;;;;;;40.55;15.98;;;;;;;3.18;92.71;101500.25;6061153;28;20030;-74
2022/01/16 12:57:25;;;;;;;44.53;16.63;;;;;;;3.14;91.94;101498.72;6073782;28;20155;-74
2022/01/16 13:00:21;;;;;;;54.50;16.92;;;;;;;3.10;92.26;101502.41;6072622;28;20037;-74
2022/01/16 13:03:27;;;;;;;46.13;15.93;;;;;;;3.14;93.10;101497.88;6073327;28;20076;-74
2022/01/16 13:06:32;;;;;;;57.92;19.33;;;;;;;3.07;92.97;101505.22;6074048;28;20026;-74
2022/01/16 13:09:28;;;;;;;56.72;20.25;;;;;;;3.11;93.67;101498.88;6072230;28;20072;-74
2022/01/16 13:12:23;;;;;;;49.20;18.15;;;;;;;3.10;93.88;101501.59;6073181;28;20029;-73
2022/01/16 13:15:22;;;;;;;58.25;18.40;;;;;;;3.12;93.97;101505.81;6072729;28;20038;-74
2022/01/16 13:18:17;;;;;;;61.20;20.25;;;;;;;3.11;93.71;101514.59;6067082;28;20038;-74
2022/01/16 13:21:12;;;;;;;55.50;18.53;;;;;;;3.17;93.78;101519.53;6055908;28;20080;-74
2022/01/16 13:24:08;;;;;;;56.70;18.93;;;;;;;3.17;93.63;101521.28;6073598;28;20033;-74
2022/01/16 13:27:27;;;;;;;59.78;19.10;;;;;;;3.24;93.95;101526.13;6073726;28;20034;-74
2022/01/16 13:30:25;;;;;;;61.90;20.48;;;;;;;3.31;93.82;101526.69;6064648;28;20092;-74
2022/01/16 13:33:21;;;;;;;56.92;20.73;;;;;;;3.35;93.34;101523.81;6071684;28;20117;-74
2022/01/16 13:36:19;;;;;;;61.80;19.73;;;;;;;3.37;93.72;101526.38;6073014;28;20040;-73
2022/01/16 13:39:14;;;;;;;60.13;19.85;;;;;;;3.39;93.65;101530.59;6073122;28;20061;-74
2022/01/16 13:42:31;;;;;;;50.63;18.53;;;;;;;3.39;93.69;101530.59;6072639;28;20033;-73
2022/01/16 13:45:46;;;;;;;59.83;20.90;;;;;;;3.44;93.26;101533.81;6069147;28;20631;-74
2022/01/16 13:48:42;;;;;;;53.65;19.05;;;;;;;3.49;93.07;101533.56;6072867;28;20045;-73
2022/01/16 13:51:37;;;;;;;56.07;20.10;;;;;;;3.54;93.71;101542.88;6062409;28;20061;-73
2022/01/16 13:54:32;;;;;;;47.97;17.60;;;;;;;3.54;93.72;101535.03;6073155;28;20030;-73
2022/01/16 13:57:32;;;;;;;52.67;18.30;;;;;;;3.59;92.92;101535.63;6072611;28;20041;-73
2022/01/16 14:00:33;;;;;;;56.22;19.35;;;;;;;3.65;92.46;101541.47;6072206;28;20268;-74
2022/01/16 14:03:31;;;;;;;52.00;18.58;;;;;;;3.71;92.62;101541.13;6072677;28;20030;-74
2022/01/16 14:06:28;;;;;;;53.42;19.27;;;;;;;3.72;92.06;101532.34;6073296;28;20039;-73
2022/01/16 14:09:24;;;;;;;45.75;17.83;;;;;;;3.77;91.99;101535.56;6074896;28;20037;-74
2022/01/16 14:12:20;;;;;;;51.30;18.70;;;;;;;3.83;92.32;101524.75;6075367;28;20793;-74